<?xml version="1.0" encoding="UTF-8" standalone="no" ?>
<gpx xmlns="http://www.topografix.com/GPX/1/1" xmlns:xsi="http://www.w3.org/2001/XMLSchema-instance" xsi:schemaLocation="http://www.topografix.com/GPX/1/1 http://www.topografix.com/GPX/1/1/gpx.xsd" version="1.1" creator="VisuGPX - https://www.visugpx.com">
  <metadata>
    <name>L'échelette-la Bombine</name>
    <desc><![CDATA[Descente vers Le Mas et son énorme Séquoïa, après la Bombine retour par La corniche du Vivarais.]]></desc>
  </metadata>
  <trk>
    <name><![CDATA[Bombine]]></name>
    <desc><![CDATA[<h1>OruxMaps</h1><br /><hr align="center" width="480" style="height: 2px; width: 517px"/><h2>Nom: Bombine</h2><br /><p>Temps de départ: 10/16/2015 09:10</p><p>Temps d'arrivée: 10/16/2015 13:50</p><p>Distance: 10,2km (04:39)</p><p>Temps déplacement: 02:49</p><p>Vitesse moyenne: 2,2km/h</p><p>Vitesse moyenne: 3,6km/h</p><p>Vitess Max.: 6,7km/h</p><p>Altitude minimale: 644m</p><p>Altitude maximale: 1064m</p><p>Vitesse d'élévation: 188,8m/h</p><p>Vitesse de descente: -274,1m/h</p><p>Gain Altitude: 485m</p><p>Perte Altitude: -492m</p><p>Temps d'élévation: 02:34</p><p>Temps de descente: 01:47</p><hr align="center" width="480" style="height: 2px; width: 517px"/>]]></desc>
    <extensions>
      <line xmlns="http://www.topografix.com/GPX/gpx_style/0/2">
        <color>0000FF</color>
        <width>4</width>
      </line>
    </extensions>
    <trkseg>
      <trkpt lat="44.50835" lon="4.05525">
        <ele>845.8</ele>
        <time>2015-10-16T07:10:32Z</time>
      </trkpt>
      <trkpt lat="44.50853" lon="4.05465">
        <ele>849.9</ele>
      </trkpt>
      <trkpt lat="44.50884" lon="4.05407">
        <ele>855.6</ele>
      </trkpt>
      <trkpt lat="44.50913" lon="4.0538">
        <ele>861.1</ele>
      </trkpt>
      <trkpt lat="44.50934" lon="4.0539">
        <ele>865.6</ele>
      </trkpt>
      <trkpt lat="44.5097" lon="4.05419">
        <ele>871</ele>
      </trkpt>
      <trkpt lat="44.51032" lon="4.05436">
        <ele>888.8</ele>
      </trkpt>
      <trkpt lat="44.51046" lon="4.0542">
        <ele>893.2</ele>
      </trkpt>
      <trkpt lat="44.51055" lon="4.05388">
        <ele>901</ele>
      </trkpt>
      <trkpt lat="44.51055" lon="4.05368">
        <ele>903.3</ele>
      </trkpt>
      <trkpt lat="44.5105" lon="4.05336">
        <ele>904.3</ele>
      </trkpt>
      <trkpt lat="44.51119" lon="4.05146">
        <ele>912.4</ele>
      </trkpt>
      <trkpt lat="44.51125" lon="4.05117">
        <ele>913</ele>
      </trkpt>
      <trkpt lat="44.51119" lon="4.05097">
        <ele>913.3</ele>
        <time>2015-10-16T07:11:44Z</time>
      </trkpt>
      <trkpt lat="44.51126" lon="4.05073">
        <ele>916.69</ele>
        <time>2015-10-16T07:12:12Z</time>
      </trkpt>
      <trkpt lat="44.51135" lon="4.0505">
        <ele>917.13</ele>
        <time>2015-10-16T07:12:42Z</time>
      </trkpt>
      <trkpt lat="44.51147" lon="4.05031">
        <ele>918.69</ele>
        <time>2015-10-16T07:13:01Z</time>
      </trkpt>
      <trkpt lat="44.51156" lon="4.05007">
        <ele>923.74</ele>
        <time>2015-10-16T07:13:38Z</time>
      </trkpt>
      <trkpt lat="44.51159" lon="4.04982">
        <ele>924.29</ele>
        <time>2015-10-16T07:13:51Z</time>
      </trkpt>
      <trkpt lat="44.51155" lon="4.04957">
        <ele>920.28</ele>
        <time>2015-10-16T07:14:07Z</time>
      </trkpt>
      <trkpt lat="44.51145" lon="4.04934">
        <ele>920.67</ele>
        <time>2015-10-16T07:14:22Z</time>
      </trkpt>
      <trkpt lat="44.51134" lon="4.04913">
        <ele>924.08</ele>
        <time>2015-10-16T07:14:39Z</time>
      </trkpt>
      <trkpt lat="44.51121" lon="4.04893">
        <ele>922.48</ele>
        <time>2015-10-16T07:14:54Z</time>
      </trkpt>
      <trkpt lat="44.51118" lon="4.04868">
        <ele>923.8</ele>
        <time>2015-10-16T07:15:11Z</time>
      </trkpt>
      <trkpt lat="44.51101" lon="4.04852">
        <ele>928.57</ele>
        <time>2015-10-16T07:15:45Z</time>
      </trkpt>
      <trkpt lat="44.51088" lon="4.04835">
        <ele>927.9</ele>
        <time>2015-10-16T07:15:57Z</time>
      </trkpt>
      <trkpt lat="44.51073" lon="4.0482">
        <ele>931.33</ele>
        <time>2015-10-16T07:16:11Z</time>
      </trkpt>
      <trkpt lat="44.51056" lon="4.04811">
        <ele>932.12</ele>
        <time>2015-10-16T07:16:31Z</time>
      </trkpt>
      <trkpt lat="44.5105" lon="4.04787">
        <ele>931.26</ele>
        <time>2015-10-16T07:16:50Z</time>
      </trkpt>
      <trkpt lat="44.51048" lon="4.04762">
        <ele>929.68</ele>
        <time>2015-10-16T07:17:13Z</time>
      </trkpt>
      <trkpt lat="44.51047" lon="4.04736">
        <ele>933.68</ele>
        <time>2015-10-16T07:17:30Z</time>
      </trkpt>
      <trkpt lat="44.51045" lon="4.0471">
        <ele>932.76</ele>
        <time>2015-10-16T07:17:57Z</time>
      </trkpt>
      <trkpt lat="44.51047" lon="4.04685">
        <ele>931.79</ele>
        <time>2015-10-16T07:18:13Z</time>
      </trkpt>
      <trkpt lat="44.51053" lon="4.0466">
        <ele>941.88</ele>
        <time>2015-10-16T07:18:54Z</time>
      </trkpt>
      <trkpt lat="44.51061" lon="4.04637">
        <ele>942.9</ele>
        <time>2015-10-16T07:19:42Z</time>
      </trkpt>
      <trkpt lat="44.51077" lon="4.04624">
        <ele>941.49</ele>
        <time>2015-10-16T07:20:00Z</time>
      </trkpt>
      <trkpt lat="44.51094" lon="4.04614">
        <ele>944.58</ele>
        <time>2015-10-16T07:20:16Z</time>
      </trkpt>
      <trkpt lat="44.5111" lon="4.04604">
        <ele>946.6</ele>
        <time>2015-10-16T07:20:34Z</time>
      </trkpt>
      <trkpt lat="44.51128" lon="4.04599">
        <ele>949.66</ele>
        <time>2015-10-16T07:20:52Z</time>
      </trkpt>
      <trkpt lat="44.51146" lon="4.0459">
        <ele>950.1</ele>
        <time>2015-10-16T07:21:13Z</time>
      </trkpt>
      <trkpt lat="44.51163" lon="4.0458">
        <ele>953.01</ele>
        <time>2015-10-16T07:21:33Z</time>
      </trkpt>
      <trkpt lat="44.51176" lon="4.04563">
        <ele>954.79</ele>
        <time>2015-10-16T07:21:51Z</time>
      </trkpt>
      <trkpt lat="44.51191" lon="4.04546">
        <ele>963.43</ele>
        <time>2015-10-16T07:22:14Z</time>
      </trkpt>
      <trkpt lat="44.51206" lon="4.04533">
        <ele>965.2</ele>
        <time>2015-10-16T07:22:36Z</time>
      </trkpt>
      <trkpt lat="44.51222" lon="4.04519">
        <ele>962.25</ele>
        <time>2015-10-16T07:22:55Z</time>
      </trkpt>
      <trkpt lat="44.51235" lon="4.04503">
        <ele>967.74</ele>
        <time>2015-10-16T07:23:17Z</time>
      </trkpt>
      <trkpt lat="44.51249" lon="4.04485">
        <ele>969.68</ele>
        <time>2015-10-16T07:23:41Z</time>
      </trkpt>
      <trkpt lat="44.51258" lon="4.04462">
        <ele>966.91</ele>
        <time>2015-10-16T07:24:02Z</time>
      </trkpt>
      <trkpt lat="44.51268" lon="4.04441">
        <ele>972.38</ele>
        <time>2015-10-16T07:24:25Z</time>
      </trkpt>
      <trkpt lat="44.51275" lon="4.04418">
        <ele>976.28</ele>
        <time>2015-10-16T07:24:46Z</time>
      </trkpt>
      <trkpt lat="44.51287" lon="4.04398">
        <ele>975.68</ele>
        <time>2015-10-16T07:25:06Z</time>
      </trkpt>
      <trkpt lat="44.51284" lon="4.04372">
        <ele>971.72</ele>
        <time>2015-10-16T07:25:28Z</time>
      </trkpt>
      <trkpt lat="44.5128" lon="4.04346">
        <ele>969.68</ele>
        <time>2015-10-16T07:25:48Z</time>
      </trkpt>
      <trkpt lat="44.51277" lon="4.04321">
        <ele>971.42</ele>
        <time>2015-10-16T07:26:08Z</time>
      </trkpt>
      <trkpt lat="44.51274" lon="4.04296">
        <ele>971.19</ele>
        <time>2015-10-16T07:26:26Z</time>
      </trkpt>
      <trkpt lat="44.51271" lon="4.04271">
        <ele>967.42</ele>
        <time>2015-10-16T07:26:45Z</time>
      </trkpt>
      <trkpt lat="44.5127" lon="4.04246">
        <ele>967.95</ele>
        <time>2015-10-16T07:27:01Z</time>
      </trkpt>
      <trkpt lat="44.51265" lon="4.0422">
        <ele>972.11</ele>
        <time>2015-10-16T07:27:18Z</time>
      </trkpt>
      <trkpt lat="44.51258" lon="4.04196">
        <ele>965.17</ele>
        <time>2015-10-16T07:28:16Z</time>
      </trkpt>
      <trkpt lat="44.51249" lon="4.04174">
        <ele>966.49</ele>
        <time>2015-10-16T07:31:04Z</time>
      </trkpt>
      <trkpt lat="44.51244" lon="4.04149">
        <ele>966.62</ele>
        <time>2015-10-16T07:31:19Z</time>
      </trkpt>
      <trkpt lat="44.51257" lon="4.0413">
        <ele>959.32</ele>
        <time>2015-10-16T07:31:36Z</time>
      </trkpt>
      <trkpt lat="44.51266" lon="4.04107">
        <ele>961.12</ele>
        <time>2015-10-16T07:31:54Z</time>
      </trkpt>
      <trkpt lat="44.51281" lon="4.04093">
        <ele>968.53</ele>
        <time>2015-10-16T07:32:09Z</time>
      </trkpt>
      <trkpt lat="44.51294" lon="4.04074">
        <ele>965.94</ele>
        <time>2015-10-16T07:32:26Z</time>
      </trkpt>
      <trkpt lat="44.51311" lon="4.04064">
        <ele>968.89</ele>
        <time>2015-10-16T07:32:40Z</time>
      </trkpt>
      <trkpt lat="44.5132" lon="4.04042">
        <ele>970.96</ele>
        <time>2015-10-16T07:32:56Z</time>
      </trkpt>
      <trkpt lat="44.51335" lon="4.04027">
        <ele>971.23</ele>
        <time>2015-10-16T07:33:15Z</time>
      </trkpt>
      <trkpt lat="44.51349" lon="4.04011">
        <ele>971.82</ele>
        <time>2015-10-16T07:33:30Z</time>
      </trkpt>
      <trkpt lat="44.5136" lon="4.03991">
        <ele>971.5</ele>
        <time>2015-10-16T07:33:49Z</time>
      </trkpt>
      <trkpt lat="44.51358" lon="4.03966">
        <ele>972.94</ele>
        <time>2015-10-16T07:34:05Z</time>
      </trkpt>
      <trkpt lat="44.51369" lon="4.03944">
        <ele>969.39</ele>
        <time>2015-10-16T07:34:26Z</time>
      </trkpt>
      <trkpt lat="44.51379" lon="4.03922">
        <ele>976.44</ele>
        <time>2015-10-16T07:34:41Z</time>
      </trkpt>
      <trkpt lat="44.51394" lon="4.03907">
        <ele>977.02</ele>
        <time>2015-10-16T07:34:59Z</time>
      </trkpt>
      <trkpt lat="44.5141" lon="4.03891">
        <ele>976.64</ele>
        <time>2015-10-16T07:35:17Z</time>
      </trkpt>
      <trkpt lat="44.51424" lon="4.03876">
        <ele>977.23</ele>
        <time>2015-10-16T07:35:34Z</time>
      </trkpt>
      <trkpt lat="44.51439" lon="4.0386">
        <ele>981.17</ele>
        <time>2015-10-16T07:35:52Z</time>
      </trkpt>
      <trkpt lat="44.51452" lon="4.03841">
        <ele>982.68</ele>
        <time>2015-10-16T07:36:09Z</time>
      </trkpt>
      <trkpt lat="44.51466" lon="4.03824">
        <ele>983.6</ele>
        <time>2015-10-16T07:36:27Z</time>
      </trkpt>
      <trkpt lat="44.51476" lon="4.03801">
        <ele>985.72</ele>
        <time>2015-10-16T07:36:56Z</time>
      </trkpt>
      <trkpt lat="44.51493" lon="4.0379">
        <ele>983.38</ele>
        <time>2015-10-16T07:37:08Z</time>
      </trkpt>
      <trkpt lat="44.51512" lon="4.03785">
        <ele>986.64</ele>
        <time>2015-10-16T07:37:27Z</time>
      </trkpt>
      <trkpt lat="44.51529" lon="4.03793">
        <ele>985.97</ele>
        <time>2015-10-16T07:37:42Z</time>
      </trkpt>
      <trkpt lat="44.51543" lon="4.03808">
        <ele>986.05</ele>
        <time>2015-10-16T07:38:03Z</time>
      </trkpt>
      <trkpt lat="44.51553" lon="4.0383">
        <ele>990.16</ele>
        <time>2015-10-16T07:38:24Z</time>
      </trkpt>
      <trkpt lat="44.51562" lon="4.03853">
        <ele>991.66</ele>
        <time>2015-10-16T07:38:44Z</time>
      </trkpt>
      <trkpt lat="44.51578" lon="4.03864">
        <ele>993.66</ele>
        <time>2015-10-16T07:39:03Z</time>
      </trkpt>
      <trkpt lat="44.51596" lon="4.03868">
        <ele>995.53</ele>
        <time>2015-10-16T07:39:27Z</time>
      </trkpt>
      <trkpt lat="44.51614" lon="4.03864">
        <ele>995.87</ele>
        <time>2015-10-16T07:39:43Z</time>
      </trkpt>
      <trkpt lat="44.51631" lon="4.03851">
        <ele>997.67</ele>
        <time>2015-10-16T07:40:00Z</time>
      </trkpt>
      <trkpt lat="44.51643" lon="4.03832">
        <ele>1005.27</ele>
        <time>2015-10-16T07:40:18Z</time>
      </trkpt>
      <trkpt lat="44.51655" lon="4.03812">
        <ele>1007.25</ele>
        <time>2015-10-16T07:40:40Z</time>
      </trkpt>
      <trkpt lat="44.51645" lon="4.0379">
        <ele>1007.81</ele>
        <time>2015-10-16T07:41:02Z</time>
      </trkpt>
      <trkpt lat="44.51662" lon="4.03797">
        <ele>1007.53</ele>
        <time>2015-10-16T07:42:04Z</time>
      </trkpt>
      <trkpt lat="44.51676" lon="4.0378">
        <ele>1010</ele>
        <time>2015-10-16T07:42:57Z</time>
      </trkpt>
      <trkpt lat="44.51686" lon="4.03758">
        <ele>1011.62</ele>
        <time>2015-10-16T07:43:23Z</time>
      </trkpt>
      <trkpt lat="44.51702" lon="4.03744">
        <ele>1015.65</ele>
        <time>2015-10-16T07:43:47Z</time>
      </trkpt>
      <trkpt lat="44.51717" lon="4.03729">
        <ele>1015.54</ele>
        <time>2015-10-16T07:44:09Z</time>
      </trkpt>
      <trkpt lat="44.51732" lon="4.03715">
        <ele>1018.33</ele>
        <time>2015-10-16T07:44:31Z</time>
      </trkpt>
      <trkpt lat="44.51747" lon="4.03699">
        <ele>1020.05</ele>
        <time>2015-10-16T07:44:53Z</time>
      </trkpt>
      <trkpt lat="44.51762" lon="4.03685">
        <ele>1023.52</ele>
        <time>2015-10-16T07:45:13Z</time>
      </trkpt>
      <trkpt lat="44.51777" lon="4.0367">
        <ele>1024.69</ele>
        <time>2015-10-16T07:45:33Z</time>
      </trkpt>
      <trkpt lat="44.51792" lon="4.03656">
        <ele>1023.69</ele>
        <time>2015-10-16T07:45:55Z</time>
      </trkpt>
      <trkpt lat="44.51808" lon="4.03641">
        <ele>1024.69</ele>
        <time>2015-10-16T07:46:15Z</time>
      </trkpt>
      <trkpt lat="44.51822" lon="4.03625">
        <ele>1026.19</ele>
        <time>2015-10-16T07:46:35Z</time>
      </trkpt>
      <trkpt lat="44.51836" lon="4.03606">
        <ele>1026.82</ele>
        <time>2015-10-16T07:46:55Z</time>
      </trkpt>
      <trkpt lat="44.51851" lon="4.03591">
        <ele>1024.69</ele>
        <time>2015-10-16T07:47:11Z</time>
      </trkpt>
      <trkpt lat="44.51865" lon="4.03574">
        <ele>1026.54</ele>
        <time>2015-10-16T07:47:28Z</time>
      </trkpt>
      <trkpt lat="44.51879" lon="4.03556">
        <ele>1027.78</ele>
        <time>2015-10-16T07:47:45Z</time>
      </trkpt>
      <trkpt lat="44.51893" lon="4.03541">
        <ele>1028.68</ele>
        <time>2015-10-16T07:48:03Z</time>
      </trkpt>
      <trkpt lat="44.51907" lon="4.03523">
        <ele>1026.74</ele>
        <time>2015-10-16T07:48:21Z</time>
      </trkpt>
      <trkpt lat="44.5192" lon="4.03504">
        <ele>1027.71</ele>
        <time>2015-10-16T07:48:39Z</time>
      </trkpt>
      <trkpt lat="44.51934" lon="4.03487">
        <ele>1029.69</ele>
        <time>2015-10-16T07:48:56Z</time>
      </trkpt>
      <trkpt lat="44.51946" lon="4.03468">
        <ele>1030.54</ele>
        <time>2015-10-16T07:49:14Z</time>
      </trkpt>
      <trkpt lat="44.51958" lon="4.03449">
        <ele>1032.16</ele>
        <time>2015-10-16T07:49:31Z</time>
      </trkpt>
      <trkpt lat="44.51971" lon="4.03431">
        <ele>1031.71</ele>
        <time>2015-10-16T07:49:47Z</time>
      </trkpt>
      <trkpt lat="44.51983" lon="4.03412">
        <ele>1031.44</ele>
        <time>2015-10-16T07:50:04Z</time>
      </trkpt>
      <trkpt lat="44.51996" lon="4.03394">
        <ele>1032.73</ele>
        <time>2015-10-16T07:50:20Z</time>
      </trkpt>
      <trkpt lat="44.52011" lon="4.03377">
        <ele>1035.78</ele>
        <time>2015-10-16T07:50:38Z</time>
      </trkpt>
      <trkpt lat="44.52025" lon="4.03361">
        <ele>1035.72</ele>
        <time>2015-10-16T07:53:20Z</time>
      </trkpt>
      <trkpt lat="44.5204" lon="4.03345">
        <ele>1035.69</ele>
        <time>2015-10-16T07:53:39Z</time>
      </trkpt>
      <trkpt lat="44.52055" lon="4.03328">
        <ele>1040.11</ele>
        <time>2015-10-16T07:53:58Z</time>
      </trkpt>
      <trkpt lat="44.5207" lon="4.03313">
        <ele>1042.16</ele>
        <time>2015-10-16T07:54:18Z</time>
      </trkpt>
      <trkpt lat="44.52084" lon="4.03296">
        <ele>1040.69</ele>
        <time>2015-10-16T07:54:37Z</time>
      </trkpt>
      <trkpt lat="44.52099" lon="4.03281">
        <ele>1040.76</ele>
        <time>2015-10-16T07:54:55Z</time>
      </trkpt>
      <trkpt lat="44.52116" lon="4.03268">
        <ele>1039.72</ele>
        <time>2015-10-16T07:55:13Z</time>
      </trkpt>
      <trkpt lat="44.5213" lon="4.03253">
        <ele>1040.65</ele>
        <time>2015-10-16T07:55:32Z</time>
      </trkpt>
      <trkpt lat="44.52146" lon="4.03239">
        <ele>1046.19</ele>
        <time>2015-10-16T07:55:51Z</time>
      </trkpt>
      <trkpt lat="44.5216" lon="4.03223">
        <ele>1045.83</ele>
        <time>2015-10-16T07:56:10Z</time>
      </trkpt>
      <trkpt lat="44.52174" lon="4.03206">
        <ele>1046.27</ele>
        <time>2015-10-16T07:56:32Z</time>
      </trkpt>
      <trkpt lat="44.52189" lon="4.03191">
        <ele>1047.24</ele>
        <time>2015-10-16T07:56:51Z</time>
      </trkpt>
      <trkpt lat="44.52204" lon="4.03177">
        <ele>1053.61</ele>
        <time>2015-10-16T07:57:10Z</time>
      </trkpt>
      <trkpt lat="44.52221" lon="4.03164">
        <ele>1052.18</ele>
        <time>2015-10-16T07:57:26Z</time>
      </trkpt>
      <trkpt lat="44.52235" lon="4.03149">
        <ele>1049.79</ele>
        <time>2015-10-16T07:57:44Z</time>
      </trkpt>
      <trkpt lat="44.52248" lon="4.03131">
        <ele>1051.65</ele>
        <time>2015-10-16T07:58:02Z</time>
      </trkpt>
      <trkpt lat="44.52262" lon="4.03114">
        <ele>1053.17</ele>
        <time>2015-10-16T07:58:21Z</time>
      </trkpt>
      <trkpt lat="44.52277" lon="4.03099">
        <ele>1056.38</ele>
        <time>2015-10-16T07:58:40Z</time>
      </trkpt>
      <trkpt lat="44.52292" lon="4.03083">
        <ele>1056.71</ele>
        <time>2015-10-16T07:59:00Z</time>
      </trkpt>
      <trkpt lat="44.52308" lon="4.03069">
        <ele>1054.34</ele>
        <time>2015-10-16T07:59:18Z</time>
      </trkpt>
      <trkpt lat="44.52324" lon="4.03056">
        <ele>1054.89</ele>
        <time>2015-10-16T07:59:35Z</time>
      </trkpt>
      <trkpt lat="44.52338" lon="4.03041">
        <ele>1052.11</ele>
        <time>2015-10-16T07:59:54Z</time>
      </trkpt>
      <trkpt lat="44.52353" lon="4.03025">
        <ele>1053.19</ele>
        <time>2015-10-16T08:00:12Z</time>
      </trkpt>
      <trkpt lat="44.52366" lon="4.03006">
        <ele>1053.74</ele>
        <time>2015-10-16T08:00:31Z</time>
      </trkpt>
      <trkpt lat="44.52381" lon="4.02989">
        <ele>1053.64</ele>
        <time>2015-10-16T08:00:48Z</time>
      </trkpt>
      <trkpt lat="44.52395" lon="4.02973">
        <ele>1052.66</ele>
        <time>2015-10-16T08:01:04Z</time>
      </trkpt>
      <trkpt lat="44.5241" lon="4.02957">
        <ele>1053.55</ele>
        <time>2015-10-16T08:01:21Z</time>
      </trkpt>
      <trkpt lat="44.52422" lon="4.02937">
        <ele>1050.7</ele>
        <time>2015-10-16T08:01:38Z</time>
      </trkpt>
      <trkpt lat="44.52436" lon="4.02919">
        <ele>1049.72</ele>
        <time>2015-10-16T08:01:54Z</time>
      </trkpt>
      <trkpt lat="44.52453" lon="4.02908">
        <ele>1051.69</ele>
        <time>2015-10-16T08:02:12Z</time>
      </trkpt>
      <trkpt lat="44.5247" lon="4.02896">
        <ele>1051.34</ele>
        <time>2015-10-16T08:02:43Z</time>
      </trkpt>
      <trkpt lat="44.52485" lon="4.02883">
        <ele>1052.32</ele>
        <time>2015-10-16T08:03:00Z</time>
      </trkpt>
      <trkpt lat="44.52501" lon="4.02871">
        <ele>1054.31</ele>
        <time>2015-10-16T08:03:16Z</time>
      </trkpt>
      <trkpt lat="44.52516" lon="4.02856">
        <ele>1050.18</ele>
        <time>2015-10-16T08:03:56Z</time>
      </trkpt>
      <trkpt lat="44.52534" lon="4.02846">
        <ele>1054.13</ele>
        <time>2015-10-16T08:04:10Z</time>
      </trkpt>
      <trkpt lat="44.52549" lon="4.02831">
        <ele>1051.33</ele>
        <time>2015-10-16T08:04:28Z</time>
      </trkpt>
      <trkpt lat="44.52566" lon="4.0282">
        <ele>1053.63</ele>
        <time>2015-10-16T08:04:45Z</time>
      </trkpt>
      <trkpt lat="44.52583" lon="4.02806">
        <ele>1050.32</ele>
        <time>2015-10-16T08:05:00Z</time>
      </trkpt>
      <trkpt lat="44.52598" lon="4.02793">
        <ele>1049.94</ele>
        <time>2015-10-16T08:05:16Z</time>
      </trkpt>
      <trkpt lat="44.52613" lon="4.0278">
        <ele>1047.07</ele>
        <time>2015-10-16T08:05:31Z</time>
      </trkpt>
      <trkpt lat="44.5263" lon="4.02759">
        <ele>1048.7</ele>
        <time>2015-10-16T08:05:48Z</time>
      </trkpt>
      <trkpt lat="44.52655" lon="4.02818">
        <ele>1043.4</ele>
      </trkpt>
      <trkpt lat="44.52685" lon="4.02904">
        <ele>1042.6</ele>
      </trkpt>
      <trkpt lat="44.52648" lon="4.02983">
        <ele>1041.4</ele>
      </trkpt>
      <trkpt lat="44.52642" lon="4.03036">
        <ele>1041.3</ele>
      </trkpt>
      <trkpt lat="44.52668" lon="4.03088">
        <ele>1041.1</ele>
      </trkpt>
      <trkpt lat="44.52702" lon="4.03124">
        <ele>1039.8</ele>
      </trkpt>
      <trkpt lat="44.52661" lon="4.03083">
        <ele>1040.9</ele>
        <time>2015-10-16T08:06:55Z</time>
      </trkpt>
      <trkpt lat="44.52646" lon="4.03049">
        <ele>1041.6</ele>
        <time>2015-10-16T08:07:09Z</time>
      </trkpt>
      <trkpt lat="44.52643" lon="4.03007">
        <ele>1041.5</ele>
        <time>2015-10-16T08:07:43Z</time>
      </trkpt>
      <trkpt lat="44.5266" lon="4.02957">
        <ele>1041.9</ele>
        <time>2015-10-16T08:07:58Z</time>
      </trkpt>
      <trkpt lat="44.52685" lon="4.02913">
        <ele>1042.9</ele>
      </trkpt>
      <trkpt lat="44.5271" lon="4.02864">
        <ele>1044.7</ele>
        <time>2015-10-16T08:08:12Z</time>
      </trkpt>
      <trkpt lat="44.52728" lon="4.02804">
        <ele>1046.5</ele>
        <time>2015-10-16T08:08:32Z</time>
      </trkpt>
      <trkpt lat="44.52752" lon="4.02731">
        <ele>1048.2</ele>
        <time>2015-10-16T08:08:48Z</time>
      </trkpt>
      <trkpt lat="44.52766" lon="4.02694">
        <ele>1051.54</ele>
        <time>2015-10-16T08:09:06Z</time>
      </trkpt>
      <trkpt lat="44.52784" lon="4.02688">
        <ele>1052.67</ele>
        <time>2015-10-16T08:09:22Z</time>
      </trkpt>
      <trkpt lat="44.52803" lon="4.02684">
        <ele>1055.62</ele>
        <time>2015-10-16T08:09:37Z</time>
      </trkpt>
      <trkpt lat="44.5282" lon="4.02672">
        <ele>1054.69</ele>
        <time>2015-10-16T08:09:58Z</time>
      </trkpt>
      <trkpt lat="44.52837" lon="4.02662">
        <ele>1049.64</ele>
        <time>2015-10-16T08:10:27Z</time>
      </trkpt>
      <trkpt lat="44.52855" lon="4.02655">
        <ele>1051.69</ele>
        <time>2015-10-16T08:10:42Z</time>
      </trkpt>
      <trkpt lat="44.52873" lon="4.0265">
        <ele>1053.81</ele>
        <time>2015-10-16T08:10:58Z</time>
      </trkpt>
      <trkpt lat="44.52892" lon="4.02642">
        <ele>1053.76</ele>
        <time>2015-10-16T08:12:35Z</time>
      </trkpt>
      <trkpt lat="44.52911" lon="4.02638">
        <ele>1057.09</ele>
        <time>2015-10-16T08:12:49Z</time>
      </trkpt>
      <trkpt lat="44.52928" lon="4.0263">
        <ele>1057.54</ele>
        <time>2015-10-16T08:13:04Z</time>
      </trkpt>
      <trkpt lat="44.52944" lon="4.02616">
        <ele>1056.77</ele>
        <time>2015-10-16T08:13:20Z</time>
      </trkpt>
      <trkpt lat="44.52958" lon="4.02599">
        <ele>1057.65</ele>
        <time>2015-10-16T08:13:36Z</time>
      </trkpt>
      <trkpt lat="44.52972" lon="4.0258">
        <ele>1053.94</ele>
        <time>2015-10-16T08:13:51Z</time>
      </trkpt>
      <trkpt lat="44.52989" lon="4.02566">
        <ele>1055.28</ele>
        <time>2015-10-16T08:14:06Z</time>
      </trkpt>
      <trkpt lat="44.53004" lon="4.02552">
        <ele>1058.14</ele>
        <time>2015-10-16T08:14:20Z</time>
      </trkpt>
      <trkpt lat="44.5302" lon="4.02538">
        <ele>1058.59</ele>
        <time>2015-10-16T08:14:35Z</time>
      </trkpt>
      <trkpt lat="44.53035" lon="4.02523">
        <ele>1060.9</ele>
        <time>2015-10-16T08:14:50Z</time>
      </trkpt>
      <trkpt lat="44.53052" lon="4.02512">
        <ele>1064.79</ele>
        <time>2015-10-16T08:15:06Z</time>
      </trkpt>
      <trkpt lat="44.53068" lon="4.02498">
        <ele>1058.69</ele>
        <time>2015-10-16T08:15:22Z</time>
      </trkpt>
      <trkpt lat="44.53085" lon="4.02488">
        <ele>1049.36</ele>
        <time>2015-10-16T08:15:38Z</time>
      </trkpt>
      <trkpt lat="44.53103" lon="4.02478">
        <ele>1052.53</ele>
        <time>2015-10-16T08:15:53Z</time>
      </trkpt>
      <trkpt lat="44.53122" lon="4.02471">
        <ele>1052.49</ele>
        <time>2015-10-16T08:16:09Z</time>
      </trkpt>
      <trkpt lat="44.53139" lon="4.02465">
        <ele>1054.69</ele>
        <time>2015-10-16T08:16:25Z</time>
      </trkpt>
      <trkpt lat="44.53157" lon="4.02457">
        <ele>1053.1</ele>
        <time>2015-10-16T08:16:40Z</time>
      </trkpt>
      <trkpt lat="44.53177" lon="4.02452">
        <ele>1056.7</ele>
        <time>2015-10-16T08:16:57Z</time>
      </trkpt>
      <trkpt lat="44.53194" lon="4.02443">
        <ele>1051.7</ele>
        <time>2015-10-16T08:17:12Z</time>
      </trkpt>
      <trkpt lat="44.53211" lon="4.02431">
        <ele>1050.7</ele>
        <time>2015-10-16T08:17:27Z</time>
      </trkpt>
      <trkpt lat="44.53227" lon="4.02418">
        <ele>1049.03</ele>
        <time>2015-10-16T08:17:44Z</time>
      </trkpt>
      <trkpt lat="44.53243" lon="4.02404">
        <ele>1047.68</ele>
        <time>2015-10-16T08:18:02Z</time>
      </trkpt>
      <trkpt lat="44.5326" lon="4.02393">
        <ele>1048.52</ele>
        <time>2015-10-16T08:18:21Z</time>
      </trkpt>
      <trkpt lat="44.53277" lon="4.02381">
        <ele>1049.92</ele>
        <time>2015-10-16T08:18:39Z</time>
      </trkpt>
      <trkpt lat="44.53294" lon="4.02367">
        <ele>1046.1</ele>
        <time>2015-10-16T08:18:57Z</time>
      </trkpt>
      <trkpt lat="44.53311" lon="4.02357">
        <ele>1037.72</ele>
        <time>2015-10-16T08:19:14Z</time>
      </trkpt>
      <trkpt lat="44.53329" lon="4.02358">
        <ele>1037.89</ele>
        <time>2015-10-16T08:19:32Z</time>
      </trkpt>
      <trkpt lat="44.53347" lon="4.02365">
        <ele>1038.95</ele>
        <time>2015-10-16T08:19:47Z</time>
      </trkpt>
      <trkpt lat="44.53366" lon="4.02367">
        <ele>1038.02</ele>
        <time>2015-10-16T08:20:05Z</time>
      </trkpt>
      <trkpt lat="44.53384" lon="4.02375">
        <ele>1036.46</ele>
        <time>2015-10-16T08:20:26Z</time>
      </trkpt>
      <trkpt lat="44.53401" lon="4.02384">
        <ele>1034.66</ele>
        <time>2015-10-16T08:20:44Z</time>
      </trkpt>
      <trkpt lat="44.53417" lon="4.02396">
        <ele>1033.7</ele>
        <time>2015-10-16T08:21:02Z</time>
      </trkpt>
      <trkpt lat="44.53417" lon="4.02422">
        <ele>1034.86</ele>
        <time>2015-10-16T08:25:08Z</time>
      </trkpt>
      <trkpt lat="44.53417" lon="4.02448">
        <ele>1033.91</ele>
        <time>2015-10-16T08:25:26Z</time>
      </trkpt>
      <trkpt lat="44.5342" lon="4.02474">
        <ele>1034.69</ele>
        <time>2015-10-16T08:25:45Z</time>
      </trkpt>
      <trkpt lat="44.53423" lon="4.02499">
        <ele>1033.09</ele>
        <time>2015-10-16T08:26:04Z</time>
      </trkpt>
      <trkpt lat="44.53423" lon="4.02526">
        <ele>1029.97</ele>
        <time>2015-10-16T08:26:24Z</time>
      </trkpt>
      <trkpt lat="44.53415" lon="4.0255">
        <ele>1026.94</ele>
        <time>2015-10-16T08:26:43Z</time>
      </trkpt>
      <trkpt lat="44.53407" lon="4.02573">
        <ele>1025.63</ele>
        <time>2015-10-16T08:27:02Z</time>
      </trkpt>
      <trkpt lat="44.53398" lon="4.02596">
        <ele>1021.89</ele>
        <time>2015-10-16T08:27:25Z</time>
      </trkpt>
      <trkpt lat="44.5339" lon="4.0262">
        <ele>1019.2</ele>
        <time>2015-10-16T08:27:43Z</time>
      </trkpt>
      <trkpt lat="44.53381" lon="4.02642">
        <ele>1018.17</ele>
        <time>2015-10-16T08:28:02Z</time>
      </trkpt>
      <trkpt lat="44.53393" lon="4.02662">
        <ele>1013.91</ele>
        <time>2015-10-16T08:28:30Z</time>
      </trkpt>
      <trkpt lat="44.53411" lon="4.0266">
        <ele>1018.65</ele>
        <time>2015-10-16T08:28:51Z</time>
      </trkpt>
      <trkpt lat="44.53429" lon="4.02653">
        <ele>1017.21</ele>
        <time>2015-10-16T08:29:08Z</time>
      </trkpt>
      <trkpt lat="44.53445" lon="4.02664">
        <ele>1017.93</ele>
        <time>2015-10-16T08:29:26Z</time>
      </trkpt>
      <trkpt lat="44.53451" lon="4.02689">
        <ele>1016.75</ele>
        <time>2015-10-16T08:29:51Z</time>
      </trkpt>
      <trkpt lat="44.5345" lon="4.02714">
        <ele>1018.67</ele>
        <time>2015-10-16T08:30:07Z</time>
      </trkpt>
      <trkpt lat="44.53438" lon="4.02734">
        <ele>1018.25</ele>
        <time>2015-10-16T08:30:25Z</time>
      </trkpt>
      <trkpt lat="44.53423" lon="4.02748">
        <ele>1017.69</ele>
        <time>2015-10-16T08:30:45Z</time>
      </trkpt>
      <trkpt lat="44.53407" lon="4.02761">
        <ele>1018.38</ele>
        <time>2015-10-16T08:31:02Z</time>
      </trkpt>
      <trkpt lat="44.53389" lon="4.02772">
        <ele>1018.28</ele>
        <time>2015-10-16T08:31:21Z</time>
      </trkpt>
      <trkpt lat="44.53372" lon="4.02782">
        <ele>1017.94</ele>
        <time>2015-10-16T08:31:38Z</time>
      </trkpt>
      <trkpt lat="44.53354" lon="4.0279">
        <ele>1017.56</ele>
        <time>2015-10-16T08:31:57Z</time>
      </trkpt>
      <trkpt lat="44.53337" lon="4.028">
        <ele>1016.74</ele>
        <time>2015-10-16T08:32:14Z</time>
      </trkpt>
      <trkpt lat="44.53321" lon="4.02813">
        <ele>1013.57</ele>
        <time>2015-10-16T08:32:32Z</time>
      </trkpt>
      <trkpt lat="44.53306" lon="4.02828">
        <ele>1011.94</ele>
        <time>2015-10-16T08:32:50Z</time>
      </trkpt>
      <trkpt lat="44.53291" lon="4.02842">
        <ele>1010.31</ele>
        <time>2015-10-16T08:33:09Z</time>
      </trkpt>
      <trkpt lat="44.53275" lon="4.02855">
        <ele>1007.69</ele>
        <time>2015-10-16T08:33:28Z</time>
      </trkpt>
      <trkpt lat="44.53258" lon="4.02866">
        <ele>1009.3</ele>
        <time>2015-10-16T08:33:46Z</time>
      </trkpt>
      <trkpt lat="44.53241" lon="4.02878">
        <ele>1008</ele>
        <time>2015-10-16T08:34:04Z</time>
      </trkpt>
      <trkpt lat="44.53224" lon="4.02889">
        <ele>1007.69</ele>
        <time>2015-10-16T08:34:40Z</time>
      </trkpt>
      <trkpt lat="44.53207" lon="4.029">
        <ele>1007.19</ele>
        <time>2015-10-16T08:35:06Z</time>
      </trkpt>
      <trkpt lat="44.5319" lon="4.02911">
        <ele>1005.25</ele>
        <time>2015-10-16T08:35:22Z</time>
      </trkpt>
      <trkpt lat="44.53179" lon="4.02932">
        <ele>1005.75</ele>
        <time>2015-10-16T08:35:37Z</time>
      </trkpt>
      <trkpt lat="44.53169" lon="4.02955">
        <ele>1007.02</ele>
        <time>2015-10-16T08:35:52Z</time>
      </trkpt>
      <trkpt lat="44.53159" lon="4.02978">
        <ele>1007.18</ele>
        <time>2015-10-16T08:36:08Z</time>
      </trkpt>
      <trkpt lat="44.53148" lon="4.02999">
        <ele>1007.65</ele>
        <time>2015-10-16T08:36:23Z</time>
      </trkpt>
      <trkpt lat="44.53134" lon="4.03015">
        <ele>1003.97</ele>
        <time>2015-10-16T08:36:39Z</time>
      </trkpt>
      <trkpt lat="44.5313" lon="4.03041">
        <ele>999.69</ele>
        <time>2015-10-16T08:36:56Z</time>
      </trkpt>
      <trkpt lat="44.53132" lon="4.03067">
        <ele>996.25</ele>
        <time>2015-10-16T08:37:13Z</time>
      </trkpt>
      <trkpt lat="44.53128" lon="4.03092">
        <ele>996.67</ele>
        <time>2015-10-16T08:37:30Z</time>
      </trkpt>
      <trkpt lat="44.53124" lon="4.03117">
        <ele>995.38</ele>
        <time>2015-10-16T08:37:46Z</time>
      </trkpt>
      <trkpt lat="44.53132" lon="4.03141">
        <ele>993.69</ele>
        <time>2015-10-16T08:38:16Z</time>
      </trkpt>
      <trkpt lat="44.53121" lon="4.0316">
        <ele>993.06</ele>
        <time>2015-10-16T08:39:21Z</time>
      </trkpt>
      <trkpt lat="44.53114" lon="4.03184">
        <ele>988.69</ele>
        <time>2015-10-16T08:39:53Z</time>
      </trkpt>
      <trkpt lat="44.53107" lon="4.03208">
        <ele>986.75</ele>
        <time>2015-10-16T08:40:10Z</time>
      </trkpt>
      <trkpt lat="44.53105" lon="4.03234">
        <ele>983</ele>
        <time>2015-10-16T08:40:46Z</time>
      </trkpt>
      <trkpt lat="44.53104" lon="4.0326">
        <ele>981.7</ele>
        <time>2015-10-16T08:41:04Z</time>
      </trkpt>
      <trkpt lat="44.53101" lon="4.03286">
        <ele>979.33</ele>
        <time>2015-10-16T08:41:21Z</time>
      </trkpt>
      <trkpt lat="44.53096" lon="4.03311">
        <ele>979.55</ele>
        <time>2015-10-16T08:41:42Z</time>
      </trkpt>
      <trkpt lat="44.53092" lon="4.03336">
        <ele>977.95</ele>
        <time>2015-10-16T08:42:04Z</time>
      </trkpt>
      <trkpt lat="44.53079" lon="4.03355">
        <ele>977.57</ele>
        <time>2015-10-16T08:42:27Z</time>
      </trkpt>
      <trkpt lat="44.53064" lon="4.03369">
        <ele>974.68</ele>
        <time>2015-10-16T08:42:47Z</time>
      </trkpt>
      <trkpt lat="44.53052" lon="4.03389">
        <ele>972.2</ele>
        <time>2015-10-16T08:43:18Z</time>
      </trkpt>
      <trkpt lat="44.53037" lon="4.03404">
        <ele>970.22</ele>
        <time>2015-10-16T08:43:38Z</time>
      </trkpt>
      <trkpt lat="44.53026" lon="4.03425">
        <ele>963.26</ele>
        <time>2015-10-16T08:44:00Z</time>
      </trkpt>
      <trkpt lat="44.53014" lon="4.03445">
        <ele>961.58</ele>
        <time>2015-10-16T08:44:22Z</time>
      </trkpt>
      <trkpt lat="44.53" lon="4.03463">
        <ele>961.75</ele>
        <time>2015-10-16T08:44:41Z</time>
      </trkpt>
      <trkpt lat="44.52987" lon="4.03481">
        <ele>960.23</ele>
        <time>2015-10-16T08:44:58Z</time>
      </trkpt>
      <trkpt lat="44.52976" lon="4.03501">
        <ele>956.72</ele>
        <time>2015-10-16T08:45:18Z</time>
      </trkpt>
      <trkpt lat="44.52963" lon="4.0352">
        <ele>952.55</ele>
        <time>2015-10-16T08:45:46Z</time>
      </trkpt>
      <trkpt lat="44.52977" lon="4.03536">
        <ele>949.71</ele>
        <time>2015-10-16T08:47:20Z</time>
      </trkpt>
      <trkpt lat="44.52964" lon="4.03518">
        <ele>949.08</ele>
        <time>2015-10-16T08:50:05Z</time>
      </trkpt>
      <trkpt lat="44.52954" lon="4.03497">
        <ele>949.8</ele>
        <time>2015-10-16T08:52:22Z</time>
      </trkpt>
      <trkpt lat="44.52953" lon="4.03523">
        <ele>948.54</ele>
        <time>2015-10-16T08:58:46Z</time>
      </trkpt>
      <trkpt lat="44.5295" lon="4.03548">
        <ele>947.42</ele>
        <time>2015-10-16T08:59:17Z</time>
      </trkpt>
      <trkpt lat="44.52941" lon="4.0357">
        <ele>946.22</ele>
        <time>2015-10-16T09:00:55Z</time>
      </trkpt>
      <trkpt lat="44.52956" lon="4.03585">
        <ele>940.81</ele>
        <time>2015-10-16T09:01:34Z</time>
      </trkpt>
      <trkpt lat="44.52974" lon="4.03592">
        <ele>937.37</ele>
        <time>2015-10-16T09:01:59Z</time>
      </trkpt>
      <trkpt lat="44.52991" lon="4.03601">
        <ele>935.51</ele>
        <time>2015-10-16T09:02:25Z</time>
      </trkpt>
      <trkpt lat="44.53004" lon="4.03618">
        <ele>936.67</ele>
        <time>2015-10-16T09:02:47Z</time>
      </trkpt>
      <trkpt lat="44.52991" lon="4.03635">
        <ele>931.72</ele>
        <time>2015-10-16T09:03:58Z</time>
      </trkpt>
      <trkpt lat="44.52984" lon="4.03659">
        <ele>929.92</ele>
        <time>2015-10-16T09:04:17Z</time>
      </trkpt>
      <trkpt lat="44.52986" lon="4.03684">
        <ele>923.85</ele>
        <time>2015-10-16T09:04:48Z</time>
      </trkpt>
      <trkpt lat="44.52995" lon="4.03706">
        <ele>918.29</ele>
        <time>2015-10-16T09:05:32Z</time>
      </trkpt>
      <trkpt lat="44.53013" lon="4.03705">
        <ele>919.19</ele>
        <time>2015-10-16T09:06:57Z</time>
      </trkpt>
      <trkpt lat="44.53031" lon="4.03707">
        <ele>910.23</ele>
        <time>2015-10-16T09:08:17Z</time>
      </trkpt>
      <trkpt lat="44.5305" lon="4.0371">
        <ele>908.72</ele>
        <time>2015-10-16T09:08:40Z</time>
      </trkpt>
      <trkpt lat="44.53068" lon="4.03715">
        <ele>904.56</ele>
        <time>2015-10-16T09:09:09Z</time>
      </trkpt>
      <trkpt lat="44.53084" lon="4.03726">
        <ele>903.17</ele>
        <time>2015-10-16T09:09:36Z</time>
      </trkpt>
      <trkpt lat="44.53101" lon="4.03735">
        <ele>896.95</ele>
        <time>2015-10-16T09:10:16Z</time>
      </trkpt>
      <trkpt lat="44.53119" lon="4.03738">
        <ele>890.7</ele>
        <time>2015-10-16T09:10:44Z</time>
      </trkpt>
      <trkpt lat="44.53136" lon="4.03747">
        <ele>885.19</ele>
        <time>2015-10-16T09:11:09Z</time>
      </trkpt>
      <trkpt lat="44.5315" lon="4.03762">
        <ele>876.74</ele>
        <time>2015-10-16T09:11:56Z</time>
      </trkpt>
      <trkpt lat="44.5316" lon="4.03784">
        <ele>880.12</ele>
        <time>2015-10-16T09:12:11Z</time>
      </trkpt>
      <trkpt lat="44.5317" lon="4.03807">
        <ele>872.43</ele>
        <time>2015-10-16T09:12:45Z</time>
      </trkpt>
      <trkpt lat="44.53184" lon="4.03822">
        <ele>870.6</ele>
        <time>2015-10-16T09:13:06Z</time>
      </trkpt>
      <trkpt lat="44.53172" lon="4.03841">
        <ele>865.21</ele>
        <time>2015-10-16T09:14:07Z</time>
      </trkpt>
      <trkpt lat="44.53183" lon="4.03863">
        <ele>855.65</ele>
        <time>2015-10-16T09:15:19Z</time>
      </trkpt>
      <trkpt lat="44.53197" lon="4.0388">
        <ele>856.7</ele>
        <time>2015-10-16T09:15:40Z</time>
      </trkpt>
      <trkpt lat="44.53214" lon="4.03872">
        <ele>855.45</ele>
        <time>2015-10-16T09:16:04Z</time>
      </trkpt>
      <trkpt lat="44.53232" lon="4.03864">
        <ele>850.08</ele>
        <time>2015-10-16T09:16:44Z</time>
      </trkpt>
      <trkpt lat="44.53248" lon="4.03875">
        <ele>853.19</ele>
        <time>2015-10-16T09:17:27Z</time>
      </trkpt>
      <trkpt lat="44.53255" lon="4.03899">
        <ele>853.94</ele>
        <time>2015-10-16T09:17:47Z</time>
      </trkpt>
      <trkpt lat="44.53263" lon="4.03923">
        <ele>850.59</ele>
        <time>2015-10-16T09:18:03Z</time>
      </trkpt>
      <trkpt lat="44.53266" lon="4.03948">
        <ele>849.84</ele>
        <time>2015-10-16T09:18:27Z</time>
      </trkpt>
      <trkpt lat="44.53274" lon="4.03972">
        <ele>839.5</ele>
        <time>2015-10-16T09:18:50Z</time>
      </trkpt>
      <trkpt lat="44.53271" lon="4.03997">
        <ele>833.63</ele>
        <time>2015-10-16T09:19:27Z</time>
      </trkpt>
      <trkpt lat="44.53286" lon="4.04014">
        <ele>827.19</ele>
        <time>2015-10-16T09:20:12Z</time>
      </trkpt>
      <trkpt lat="44.53292" lon="4.04038">
        <ele>823.77</ele>
        <time>2015-10-16T09:21:44Z</time>
      </trkpt>
      <trkpt lat="44.53308" lon="4.04051">
        <ele>819.2</ele>
        <time>2015-10-16T09:22:12Z</time>
      </trkpt>
      <trkpt lat="44.53326" lon="4.04058">
        <ele>810.86</ele>
        <time>2015-10-16T09:22:52Z</time>
      </trkpt>
      <trkpt lat="44.53341" lon="4.0407">
        <ele>798.56</ele>
        <time>2015-10-16T09:23:17Z</time>
      </trkpt>
      <trkpt lat="44.53356" lon="4.04085">
        <ele>793.56</ele>
        <time>2015-10-16T09:24:09Z</time>
      </trkpt>
      <trkpt lat="44.53372" lon="4.04097">
        <ele>798.47</ele>
        <time>2015-10-16T09:24:46Z</time>
      </trkpt>
      <trkpt lat="44.5339" lon="4.04103">
        <ele>798.48</ele>
        <time>2015-10-16T09:25:38Z</time>
      </trkpt>
      <trkpt lat="44.53408" lon="4.04108">
        <ele>792.08</ele>
        <time>2015-10-16T09:26:01Z</time>
      </trkpt>
      <trkpt lat="44.53426" lon="4.04113">
        <ele>789.19</ele>
        <time>2015-10-16T09:26:22Z</time>
      </trkpt>
      <trkpt lat="44.53438" lon="4.04132">
        <ele>775.69</ele>
        <time>2015-10-16T09:31:41Z</time>
      </trkpt>
      <trkpt lat="44.53456" lon="4.04137">
        <ele>775.75</ele>
        <time>2015-10-16T09:32:22Z</time>
      </trkpt>
      <trkpt lat="44.53473" lon="4.04146">
        <ele>770.16</ele>
        <time>2015-10-16T09:32:46Z</time>
      </trkpt>
      <trkpt lat="44.53489" lon="4.04158">
        <ele>768.76</ele>
        <time>2015-10-16T09:33:12Z</time>
      </trkpt>
      <trkpt lat="44.53507" lon="4.04167">
        <ele>757.87</ele>
        <time>2015-10-16T09:33:33Z</time>
      </trkpt>
      <trkpt lat="44.53522" lon="4.04182">
        <ele>767.31</ele>
        <time>2015-10-16T09:34:18Z</time>
      </trkpt>
      <trkpt lat="44.5354" lon="4.04188">
        <ele>765.59</ele>
        <time>2015-10-16T09:34:30Z</time>
      </trkpt>
      <trkpt lat="44.53557" lon="4.04198">
        <ele>765.44</ele>
        <time>2015-10-16T09:34:46Z</time>
      </trkpt>
      <trkpt lat="44.53565" lon="4.0422">
        <ele>765.37</ele>
        <time>2015-10-16T09:35:27Z</time>
      </trkpt>
      <trkpt lat="44.53547" lon="4.04221">
        <ele>754.29</ele>
        <time>2015-10-16T09:36:54Z</time>
      </trkpt>
      <trkpt lat="44.53528" lon="4.04221">
        <ele>749.22</ele>
        <time>2015-10-16T09:37:31Z</time>
      </trkpt>
      <trkpt lat="44.5351" lon="4.04222">
        <ele>734.6</ele>
        <time>2015-10-16T09:37:56Z</time>
      </trkpt>
      <trkpt lat="44.53492" lon="4.04219">
        <ele>743.19</ele>
        <time>2015-10-16T09:38:48Z</time>
      </trkpt>
      <trkpt lat="44.53476" lon="4.04232">
        <ele>740.16</ele>
        <time>2015-10-16T09:39:04Z</time>
      </trkpt>
      <trkpt lat="44.53458" lon="4.04241">
        <ele>740.2</ele>
        <time>2015-10-16T09:39:25Z</time>
      </trkpt>
      <trkpt lat="44.53441" lon="4.04249">
        <ele>740.13</ele>
        <time>2015-10-16T09:39:59Z</time>
      </trkpt>
      <trkpt lat="44.53423" lon="4.04256">
        <ele>737.91</ele>
        <time>2015-10-16T09:40:24Z</time>
      </trkpt>
      <trkpt lat="44.53408" lon="4.04271">
        <ele>727.98</ele>
        <time>2015-10-16T09:41:53Z</time>
      </trkpt>
      <trkpt lat="44.5339" lon="4.04267">
        <ele>728.83</ele>
        <time>2015-10-16T09:42:23Z</time>
      </trkpt>
      <trkpt lat="44.53393" lon="4.04294">
        <ele>724.11</ele>
        <time>2015-10-16T09:43:03Z</time>
      </trkpt>
      <trkpt lat="44.53403" lon="4.04316">
        <ele>717.34</ele>
        <time>2015-10-16T09:43:25Z</time>
      </trkpt>
      <trkpt lat="44.53386" lon="4.04326">
        <ele>710.18</ele>
        <time>2015-10-16T09:44:29Z</time>
      </trkpt>
      <trkpt lat="44.53367" lon="4.04324">
        <ele>707.6</ele>
        <time>2015-10-16T09:45:01Z</time>
      </trkpt>
      <trkpt lat="44.53349" lon="4.04319">
        <ele>707.68</ele>
        <time>2015-10-16T09:45:18Z</time>
      </trkpt>
      <trkpt lat="44.53333" lon="4.04331">
        <ele>704.9</ele>
        <time>2015-10-16T09:46:04Z</time>
      </trkpt>
      <trkpt lat="44.53315" lon="4.04341">
        <ele>701.64</ele>
        <time>2015-10-16T09:46:25Z</time>
      </trkpt>
      <trkpt lat="44.53298" lon="4.04337">
        <ele>697.7</ele>
        <time>2015-10-16T09:46:43Z</time>
      </trkpt>
      <trkpt lat="44.5328" lon="4.04331">
        <ele>694.81</ele>
        <time>2015-10-16T09:47:03Z</time>
      </trkpt>
      <trkpt lat="44.53286" lon="4.04355">
        <ele>689.12</ele>
        <time>2015-10-16T09:47:30Z</time>
      </trkpt>
      <trkpt lat="44.533" lon="4.04372">
        <ele>683.57</ele>
        <time>2015-10-16T09:47:49Z</time>
      </trkpt>
      <trkpt lat="44.53284" lon="4.04383">
        <ele>683.66</ele>
        <time>2015-10-16T09:48:21Z</time>
      </trkpt>
      <trkpt lat="44.53265" lon="4.04378">
        <ele>662.92</ele>
        <time>2015-10-16T09:49:03Z</time>
      </trkpt>
      <trkpt lat="44.53247" lon="4.04374">
        <ele>654.94</ele>
        <time>2015-10-16T09:49:31Z</time>
      </trkpt>
      <trkpt lat="44.53228" lon="4.04372">
        <ele>655.85</ele>
        <time>2015-10-16T09:49:46Z</time>
      </trkpt>
      <trkpt lat="44.53209" lon="4.04374">
        <ele>651.42</ele>
        <time>2015-10-16T09:50:55Z</time>
      </trkpt>
      <trkpt lat="44.53193" lon="4.04387">
        <ele>651.68</ele>
        <time>2015-10-16T09:51:13Z</time>
      </trkpt>
      <trkpt lat="44.53177" lon="4.04399">
        <ele>646.23</ele>
        <time>2015-10-16T09:51:30Z</time>
      </trkpt>
      <trkpt lat="44.53159" lon="4.04397">
        <ele>646.69</ele>
        <time>2015-10-16T09:51:49Z</time>
      </trkpt>
      <trkpt lat="44.5314" lon="4.04391">
        <ele>647.57</ele>
        <time>2015-10-16T09:52:05Z</time>
      </trkpt>
      <trkpt lat="44.53122" lon="4.04387">
        <ele>647.78</ele>
        <time>2015-10-16T09:52:24Z</time>
      </trkpt>
      <trkpt lat="44.53104" lon="4.04383">
        <ele>649.78</ele>
        <time>2015-10-16T09:54:47Z</time>
      </trkpt>
      <trkpt lat="44.53092" lon="4.04402">
        <ele>653.15</ele>
        <time>2015-10-16T09:57:14Z</time>
      </trkpt>
      <trkpt lat="44.53074" lon="4.04399">
        <ele>659.65</ele>
        <time>2015-10-16T09:58:22Z</time>
      </trkpt>
      <trkpt lat="44.53058" lon="4.0441">
        <ele>663.42</ele>
        <time>2015-10-16T09:58:43Z</time>
      </trkpt>
      <trkpt lat="44.53041" lon="4.04423">
        <ele>666.62</ele>
        <time>2015-10-16T09:59:07Z</time>
      </trkpt>
      <trkpt lat="44.53025" lon="4.04436">
        <ele>663.67</ele>
        <time>2015-10-16T09:59:25Z</time>
      </trkpt>
      <trkpt lat="44.53007" lon="4.04446">
        <ele>660.81</ele>
        <time>2015-10-16T09:59:45Z</time>
      </trkpt>
      <trkpt lat="44.5299" lon="4.04454">
        <ele>653.76</ele>
        <time>2015-10-16T10:00:07Z</time>
      </trkpt>
      <trkpt lat="44.52971" lon="4.04456">
        <ele>650.7</ele>
        <time>2015-10-16T10:00:24Z</time>
      </trkpt>
      <trkpt lat="44.52953" lon="4.04457">
        <ele>653.03</ele>
        <time>2015-10-16T10:00:41Z</time>
      </trkpt>
      <trkpt lat="44.52935" lon="4.04465">
        <ele>651.6</ele>
        <time>2015-10-16T10:01:50Z</time>
      </trkpt>
      <trkpt lat="44.5292" lon="4.04481">
        <ele>651.6</ele>
        <time>2015-10-16T10:02:05Z</time>
      </trkpt>
      <trkpt lat="44.52904" lon="4.04494">
        <ele>649.57</ele>
        <time>2015-10-16T10:02:19Z</time>
      </trkpt>
      <trkpt lat="44.52887" lon="4.04504">
        <ele>644.23</ele>
        <time>2015-10-16T10:02:35Z</time>
      </trkpt>
      <trkpt lat="44.52871" lon="4.04519">
        <ele>647.22</ele>
        <time>2015-10-16T10:02:50Z</time>
      </trkpt>
      <trkpt lat="44.52856" lon="4.04534">
        <ele>648.15</ele>
        <time>2015-10-16T10:03:01Z</time>
      </trkpt>
      <trkpt lat="44.52838" lon="4.04532">
        <ele>651.63</ele>
        <time>2015-10-16T10:03:16Z</time>
      </trkpt>
      <trkpt lat="44.52819" lon="4.04527">
        <ele>649.82</ele>
        <time>2015-10-16T10:03:33Z</time>
      </trkpt>
      <trkpt lat="44.52836" lon="4.04536">
        <ele>650.69</ele>
        <time>2015-10-16T10:04:49Z</time>
      </trkpt>
      <trkpt lat="44.52824" lon="4.04517">
        <ele>651.43</ele>
        <time>2015-10-16T10:42:50Z</time>
      </trkpt>
      <trkpt lat="44.52806" lon="4.04514">
        <ele>658.46</ele>
        <time>2015-10-16T10:43:26Z</time>
      </trkpt>
      <trkpt lat="44.52788" lon="4.04511">
        <ele>657.87</ele>
        <time>2015-10-16T10:43:56Z</time>
      </trkpt>
      <trkpt lat="44.52769" lon="4.04515">
        <ele>669.51</ele>
        <time>2015-10-16T10:44:56Z</time>
      </trkpt>
      <trkpt lat="44.52752" lon="4.04523">
        <ele>676.06</ele>
        <time>2015-10-16T10:45:29Z</time>
      </trkpt>
      <trkpt lat="44.52733" lon="4.04522">
        <ele>676.6</ele>
        <time>2015-10-16T10:46:02Z</time>
      </trkpt>
      <trkpt lat="44.52715" lon="4.04526">
        <ele>674.55</ele>
        <time>2015-10-16T10:46:19Z</time>
      </trkpt>
      <trkpt lat="44.52697" lon="4.04537">
        <ele>675.24</ele>
        <time>2015-10-16T10:47:31Z</time>
      </trkpt>
      <trkpt lat="44.5268" lon="4.04546">
        <ele>681.09</ele>
        <time>2015-10-16T10:47:43Z</time>
      </trkpt>
      <trkpt lat="44.52666" lon="4.04562">
        <ele>677.27</ele>
        <time>2015-10-16T10:48:13Z</time>
      </trkpt>
      <trkpt lat="44.52657" lon="4.04585">
        <ele>680.57</ele>
        <time>2015-10-16T10:48:40Z</time>
      </trkpt>
      <trkpt lat="44.52663" lon="4.04609">
        <ele>685.38</ele>
        <time>2015-10-16T10:49:13Z</time>
      </trkpt>
      <trkpt lat="44.52664" lon="4.04634">
        <ele>685.44</ele>
        <time>2015-10-16T10:49:32Z</time>
      </trkpt>
      <trkpt lat="44.52664" lon="4.0466">
        <ele>689.2</ele>
        <time>2015-10-16T10:50:19Z</time>
      </trkpt>
      <trkpt lat="44.52658" lon="4.04683">
        <ele>684.74</ele>
        <time>2015-10-16T10:50:46Z</time>
      </trkpt>
      <trkpt lat="44.52648" lon="4.04706">
        <ele>684.05</ele>
        <time>2015-10-16T10:51:13Z</time>
      </trkpt>
      <trkpt lat="44.52636" lon="4.04687">
        <ele>696.15</ele>
        <time>2015-10-16T10:53:30Z</time>
      </trkpt>
      <trkpt lat="44.52633" lon="4.04662">
        <ele>705.42</ele>
        <time>2015-10-16T10:54:40Z</time>
      </trkpt>
      <trkpt lat="44.52625" lon="4.04639">
        <ele>707.53</ele>
        <time>2015-10-16T10:55:05Z</time>
      </trkpt>
      <trkpt lat="44.5261" lon="4.04655">
        <ele>712.37</ele>
        <time>2015-10-16T10:56:34Z</time>
      </trkpt>
      <trkpt lat="44.526" lon="4.04677">
        <ele>714.38</ele>
        <time>2015-10-16T10:56:58Z</time>
      </trkpt>
      <trkpt lat="44.52588" lon="4.04696">
        <ele>716.9</ele>
        <time>2015-10-16T10:57:19Z</time>
      </trkpt>
      <trkpt lat="44.52573" lon="4.04712">
        <ele>717.66</ele>
        <time>2015-10-16T10:57:43Z</time>
      </trkpt>
      <trkpt lat="44.52556" lon="4.0472">
        <ele>723.56</ele>
        <time>2015-10-16T10:58:17Z</time>
      </trkpt>
      <trkpt lat="44.52539" lon="4.0473">
        <ele>730.88</ele>
        <time>2015-10-16T10:58:50Z</time>
      </trkpt>
      <trkpt lat="44.52522" lon="4.04739">
        <ele>728.04</ele>
        <time>2015-10-16T10:59:20Z</time>
      </trkpt>
      <trkpt lat="44.52507" lon="4.04755">
        <ele>732.04</ele>
        <time>2015-10-16T10:59:54Z</time>
      </trkpt>
      <trkpt lat="44.52493" lon="4.04771">
        <ele>735.59</ele>
        <time>2015-10-16T11:00:07Z</time>
      </trkpt>
      <trkpt lat="44.52476" lon="4.04781">
        <ele>734.19</ele>
        <time>2015-10-16T11:00:23Z</time>
      </trkpt>
      <trkpt lat="44.52465" lon="4.04802">
        <ele>732.95</ele>
        <time>2015-10-16T11:00:50Z</time>
      </trkpt>
      <trkpt lat="44.52453" lon="4.04821">
        <ele>740.54</ele>
        <time>2015-10-16T11:01:12Z</time>
      </trkpt>
      <trkpt lat="44.52435" lon="4.04832">
        <ele>741.44</ele>
        <time>2015-10-16T11:02:08Z</time>
      </trkpt>
      <trkpt lat="44.52418" lon="4.04842">
        <ele>744.8</ele>
        <time>2015-10-16T11:02:23Z</time>
      </trkpt>
      <trkpt lat="44.52404" lon="4.04859">
        <ele>743.95</ele>
        <time>2015-10-16T11:02:46Z</time>
      </trkpt>
      <trkpt lat="44.52388" lon="4.04871">
        <ele>753.08</ele>
        <time>2015-10-16T11:03:08Z</time>
      </trkpt>
      <trkpt lat="44.52371" lon="4.04881">
        <ele>755.36</ele>
        <time>2015-10-16T11:03:50Z</time>
      </trkpt>
      <trkpt lat="44.52357" lon="4.04898">
        <ele>754.24</ele>
        <time>2015-10-16T11:04:13Z</time>
      </trkpt>
      <trkpt lat="44.52339" lon="4.04908">
        <ele>755.82</ele>
        <time>2015-10-16T11:04:45Z</time>
      </trkpt>
      <trkpt lat="44.52323" lon="4.04918">
        <ele>751.74</ele>
        <time>2015-10-16T11:05:15Z</time>
      </trkpt>
      <trkpt lat="44.52306" lon="4.04926">
        <ele>750.94</ele>
        <time>2015-10-16T11:05:59Z</time>
      </trkpt>
      <trkpt lat="44.52288" lon="4.04934">
        <ele>757.44</ele>
        <time>2015-10-16T11:06:17Z</time>
      </trkpt>
      <trkpt lat="44.52271" lon="4.04944">
        <ele>761.63</ele>
        <time>2015-10-16T11:06:40Z</time>
      </trkpt>
      <trkpt lat="44.52253" lon="4.04942">
        <ele>769.93</ele>
        <time>2015-10-16T11:07:38Z</time>
      </trkpt>
      <trkpt lat="44.52235" lon="4.04938">
        <ele>771.35</ele>
        <time>2015-10-16T11:08:07Z</time>
      </trkpt>
      <trkpt lat="44.52218" lon="4.04926">
        <ele>769.11</ele>
        <time>2015-10-16T11:08:49Z</time>
      </trkpt>
      <trkpt lat="44.52202" lon="4.04915">
        <ele>764.77</ele>
        <time>2015-10-16T11:09:02Z</time>
      </trkpt>
      <trkpt lat="44.52185" lon="4.04904">
        <ele>776.72</ele>
        <time>2015-10-16T11:10:37Z</time>
      </trkpt>
      <trkpt lat="44.52166" lon="4.04904">
        <ele>775.34</ele>
        <time>2015-10-16T11:11:01Z</time>
      </trkpt>
      <trkpt lat="44.52148" lon="4.04902">
        <ele>781.57</ele>
        <time>2015-10-16T11:11:21Z</time>
      </trkpt>
      <trkpt lat="44.52129" lon="4.04891">
        <ele>787.61</ele>
        <time>2015-10-16T11:12:37Z</time>
      </trkpt>
      <trkpt lat="44.52111" lon="4.0489">
        <ele>793.44</ele>
        <time>2015-10-16T11:13:57Z</time>
      </trkpt>
      <trkpt lat="44.52091" lon="4.04893">
        <ele>795.04</ele>
        <time>2015-10-16T11:14:46Z</time>
      </trkpt>
      <trkpt lat="44.52072" lon="4.04898">
        <ele>807.85</ele>
        <time>2015-10-16T11:16:11Z</time>
      </trkpt>
      <trkpt lat="44.52054" lon="4.04897">
        <ele>809.38</ele>
        <time>2015-10-16T11:16:22Z</time>
      </trkpt>
      <trkpt lat="44.52036" lon="4.0489">
        <ele>812.73</ele>
        <time>2015-10-16T11:16:40Z</time>
      </trkpt>
      <trkpt lat="44.52018" lon="4.04892">
        <ele>818.56</ele>
        <time>2015-10-16T11:17:57Z</time>
      </trkpt>
      <trkpt lat="44.52" lon="4.04898">
        <ele>810.69</ele>
        <time>2015-10-16T11:19:21Z</time>
      </trkpt>
      <trkpt lat="44.51983" lon="4.04911">
        <ele>814.06</ele>
        <time>2015-10-16T11:23:09Z</time>
      </trkpt>
      <trkpt lat="44.5197" lon="4.04929">
        <ele>818.84</ele>
        <time>2015-10-16T11:23:21Z</time>
      </trkpt>
      <trkpt lat="44.51968" lon="4.04955">
        <ele>821.53</ele>
        <time>2015-10-16T11:24:00Z</time>
      </trkpt>
      <trkpt lat="44.51951" lon="4.04943">
        <ele>824.82</ele>
        <time>2015-10-16T11:25:11Z</time>
      </trkpt>
      <trkpt lat="44.51934" lon="4.04933">
        <ele>829.37</ele>
        <time>2015-10-16T11:25:52Z</time>
      </trkpt>
      <trkpt lat="44.51916" lon="4.04924">
        <ele>824.03</ele>
        <time>2015-10-16T11:26:19Z</time>
      </trkpt>
      <trkpt lat="44.51899" lon="4.04916">
        <ele>827.43</ele>
        <time>2015-10-16T11:26:42Z</time>
      </trkpt>
      <trkpt lat="44.51882" lon="4.04907">
        <ele>835.05</ele>
        <time>2015-10-16T11:27:07Z</time>
      </trkpt>
      <trkpt lat="44.51866" lon="4.04896">
        <ele>835.62</ele>
        <time>2015-10-16T11:27:24Z</time>
      </trkpt>
      <trkpt lat="44.51848" lon="4.04889">
        <ele>838.17</ele>
        <time>2015-10-16T11:27:45Z</time>
      </trkpt>
      <trkpt lat="44.51829" lon="4.04888">
        <ele>839.39</ele>
        <time>2015-10-16T11:28:01Z</time>
      </trkpt>
      <trkpt lat="44.51811" lon="4.04892">
        <ele>840.38</ele>
        <time>2015-10-16T11:28:17Z</time>
      </trkpt>
      <trkpt lat="44.51793" lon="4.04892">
        <ele>844.23</ele>
        <time>2015-10-16T11:28:34Z</time>
      </trkpt>
      <trkpt lat="44.51775" lon="4.04888">
        <ele>845.76</ele>
        <time>2015-10-16T11:29:00Z</time>
      </trkpt>
      <trkpt lat="44.5177" lon="4.04864">
        <ele>839.67</ele>
        <time>2015-10-16T11:29:53Z</time>
      </trkpt>
      <trkpt lat="44.5177" lon="4.04838">
        <ele>843.41</ele>
        <time>2015-10-16T11:30:08Z</time>
      </trkpt>
      <trkpt lat="44.51766" lon="4.04812">
        <ele>846.15</ele>
        <time>2015-10-16T11:30:27Z</time>
      </trkpt>
      <trkpt lat="44.51758" lon="4.04789">
        <ele>845.38</ele>
        <time>2015-10-16T11:30:43Z</time>
      </trkpt>
      <trkpt lat="44.51758" lon="4.04762">
        <ele>847.93</ele>
        <time>2015-10-16T11:31:02Z</time>
      </trkpt>
      <trkpt lat="44.51758" lon="4.04737">
        <ele>859.33</ele>
        <time>2015-10-16T11:31:22Z</time>
      </trkpt>
      <trkpt lat="44.51763" lon="4.04712">
        <ele>850.71</ele>
        <time>2015-10-16T11:31:39Z</time>
      </trkpt>
      <trkpt lat="44.51768" lon="4.04687">
        <ele>849.16</ele>
        <time>2015-10-16T11:31:58Z</time>
      </trkpt>
      <trkpt lat="44.51773" lon="4.04662">
        <ele>852.49</ele>
        <time>2015-10-16T11:32:16Z</time>
      </trkpt>
      <trkpt lat="44.51778" lon="4.04638">
        <ele>857.91</ele>
        <time>2015-10-16T11:32:32Z</time>
      </trkpt>
      <trkpt lat="44.51783" lon="4.04613">
        <ele>857.94</ele>
        <time>2015-10-16T11:32:49Z</time>
      </trkpt>
      <trkpt lat="44.51787" lon="4.04588">
        <ele>857.31</ele>
        <time>2015-10-16T11:33:12Z</time>
      </trkpt>
      <trkpt lat="44.5179" lon="4.04562">
        <ele>857.19</ele>
        <time>2015-10-16T11:33:28Z</time>
      </trkpt>
      <trkpt lat="44.51784" lon="4.04537">
        <ele>856.39</ele>
        <time>2015-10-16T11:33:54Z</time>
      </trkpt>
      <trkpt lat="44.51765" lon="4.04536">
        <ele>855.88</ele>
        <time>2015-10-16T11:34:43Z</time>
      </trkpt>
      <trkpt lat="44.51753" lon="4.04555">
        <ele>859.47</ele>
        <time>2015-10-16T11:35:09Z</time>
      </trkpt>
      <trkpt lat="44.51737" lon="4.04567">
        <ele>862.98</ele>
        <time>2015-10-16T11:35:25Z</time>
      </trkpt>
      <trkpt lat="44.51719" lon="4.04575">
        <ele>865.32</ele>
        <time>2015-10-16T11:35:42Z</time>
      </trkpt>
      <trkpt lat="44.51704" lon="4.0459">
        <ele>872.67</ele>
        <time>2015-10-16T11:35:58Z</time>
      </trkpt>
      <trkpt lat="44.51698" lon="4.04615">
        <ele>869.47</ele>
        <time>2015-10-16T11:36:21Z</time>
      </trkpt>
      <trkpt lat="44.51699" lon="4.04641">
        <ele>862.42</ele>
        <time>2015-10-16T11:36:34Z</time>
      </trkpt>
      <trkpt lat="44.5169" lon="4.04664">
        <ele>868.11</ele>
        <time>2015-10-16T11:36:49Z</time>
      </trkpt>
      <trkpt lat="44.51683" lon="4.04688">
        <ele>870.25</ele>
        <time>2015-10-16T11:37:31Z</time>
      </trkpt>
      <trkpt lat="44.51667" lon="4.04701">
        <ele>868.27</ele>
        <time>2015-10-16T11:37:51Z</time>
      </trkpt>
      <trkpt lat="44.51651" lon="4.04712">
        <ele>877.11</ele>
        <time>2015-10-16T11:38:16Z</time>
      </trkpt>
      <trkpt lat="44.51633" lon="4.04721">
        <ele>880.62</ele>
        <time>2015-10-16T11:38:35Z</time>
      </trkpt>
      <trkpt lat="44.51617" lon="4.04735">
        <ele>880.35</ele>
        <time>2015-10-16T11:38:52Z</time>
      </trkpt>
      <trkpt lat="44.51612" lon="4.0476">
        <ele>881.19</ele>
        <time>2015-10-16T11:39:25Z</time>
      </trkpt>
      <trkpt lat="44.51609" lon="4.04785">
        <ele>878.17</ele>
        <time>2015-10-16T11:39:37Z</time>
      </trkpt>
      <trkpt lat="44.51603" lon="4.04808">
        <ele>880.94</ele>
        <time>2015-10-16T11:40:03Z</time>
      </trkpt>
      <trkpt lat="44.51589" lon="4.04827">
        <ele>881.76</ele>
        <time>2015-10-16T11:40:16Z</time>
      </trkpt>
      <trkpt lat="44.51576" lon="4.04845">
        <ele>876.46</ele>
        <time>2015-10-16T11:40:34Z</time>
      </trkpt>
      <trkpt lat="44.51564" lon="4.04864">
        <ele>876.39</ele>
        <time>2015-10-16T11:40:49Z</time>
      </trkpt>
      <trkpt lat="44.51554" lon="4.04886">
        <ele>880.28</ele>
        <time>2015-10-16T11:41:08Z</time>
      </trkpt>
      <trkpt lat="44.5154" lon="4.04903">
        <ele>880.82</ele>
        <time>2015-10-16T11:41:27Z</time>
      </trkpt>
      <trkpt lat="44.51525" lon="4.04919">
        <ele>880.9</ele>
        <time>2015-10-16T11:41:46Z</time>
      </trkpt>
      <trkpt lat="44.51508" lon="4.04931">
        <ele>883.59</ele>
        <time>2015-10-16T11:42:05Z</time>
      </trkpt>
      <trkpt lat="44.51491" lon="4.04941">
        <ele>882.19</ele>
        <time>2015-10-16T11:42:22Z</time>
      </trkpt>
      <trkpt lat="44.51473" lon="4.04946">
        <ele>882.18</ele>
        <time>2015-10-16T11:42:43Z</time>
      </trkpt>
      <trkpt lat="44.51455" lon="4.04948">
        <ele>883.11</ele>
        <time>2015-10-16T11:42:58Z</time>
      </trkpt>
      <trkpt lat="44.51437" lon="4.04952">
        <ele>881.81</ele>
        <time>2015-10-16T11:43:15Z</time>
      </trkpt>
      <trkpt lat="44.5142" lon="4.04961">
        <ele>887.9</ele>
        <time>2015-10-16T11:43:33Z</time>
      </trkpt>
      <trkpt lat="44.51402" lon="4.04965">
        <ele>894.34</ele>
        <time>2015-10-16T11:43:49Z</time>
      </trkpt>
      <trkpt lat="44.51384" lon="4.04969">
        <ele>894.31</ele>
        <time>2015-10-16T11:44:08Z</time>
      </trkpt>
      <trkpt lat="44.51366" lon="4.0497">
        <ele>890.8</ele>
        <time>2015-10-16T11:44:26Z</time>
      </trkpt>
      <trkpt lat="44.51347" lon="4.04969">
        <ele>892.28</ele>
        <time>2015-10-16T11:44:42Z</time>
      </trkpt>
      <trkpt lat="44.51329" lon="4.04975">
        <ele>896.02</ele>
        <time>2015-10-16T11:45:00Z</time>
      </trkpt>
      <trkpt lat="44.51311" lon="4.04974">
        <ele>895.28</ele>
        <time>2015-10-16T11:45:15Z</time>
      </trkpt>
      <trkpt lat="44.51293" lon="4.04967">
        <ele>888.6</ele>
        <time>2015-10-16T11:45:33Z</time>
      </trkpt>
      <trkpt lat="44.51275" lon="4.04958">
        <ele>889.56</ele>
        <time>2015-10-16T11:45:49Z</time>
      </trkpt>
      <trkpt lat="44.51261" lon="4.04941">
        <ele>893.64</ele>
        <time>2015-10-16T11:46:10Z</time>
      </trkpt>
      <trkpt lat="44.5125" lon="4.0492">
        <ele>894.92</ele>
        <time>2015-10-16T11:46:30Z</time>
      </trkpt>
      <trkpt lat="44.51237" lon="4.049">
        <ele>898.83</ele>
        <time>2015-10-16T11:46:47Z</time>
      </trkpt>
      <trkpt lat="44.51219" lon="4.04891">
        <ele>901.78</ele>
        <time>2015-10-16T11:47:03Z</time>
      </trkpt>
      <trkpt lat="44.51214" lon="4.04917">
        <ele>902.51</ele>
        <time>2015-10-16T11:47:24Z</time>
      </trkpt>
      <trkpt lat="44.51209" lon="4.04942">
        <ele>903.94</ele>
        <time>2015-10-16T11:47:55Z</time>
      </trkpt>
      <trkpt lat="44.51206" lon="4.04967">
        <ele>905.43</ele>
        <time>2015-10-16T11:48:15Z</time>
      </trkpt>
      <trkpt lat="44.51204" lon="4.04992">
        <ele>904.43</ele>
        <time>2015-10-16T11:48:32Z</time>
      </trkpt>
      <trkpt lat="44.51193" lon="4.05013">
        <ele>907.04</ele>
        <time>2015-10-16T11:48:50Z</time>
      </trkpt>
      <trkpt lat="44.51179" lon="4.05028">
        <ele>912.6</ele>
        <time>2015-10-16T11:49:10Z</time>
      </trkpt>
      <trkpt lat="44.51166" lon="4.05047">
        <ele>908.82</ele>
        <time>2015-10-16T11:49:28Z</time>
      </trkpt>
      <trkpt lat="44.51153" lon="4.05067">
        <ele>907.92</ele>
        <time>2015-10-16T11:49:46Z</time>
      </trkpt>
      <trkpt lat="44.51139" lon="4.05084">
        <ele>910.59</ele>
        <time>2015-10-16T11:50:02Z</time>
      </trkpt>
      <trkpt lat="44.51123" lon="4.05095">
        <ele>913.5</ele>
      </trkpt>
      <trkpt lat="44.51122" lon="4.0512">
        <ele>912.6</ele>
      </trkpt>
      <trkpt lat="44.5112" lon="4.05139">
        <ele>912</ele>
      </trkpt>
      <trkpt lat="44.51055" lon="4.05319">
        <ele>905.3</ele>
      </trkpt>
      <trkpt lat="44.51049" lon="4.05344">
        <ele>903.4</ele>
      </trkpt>
      <trkpt lat="44.51055" lon="4.05362">
        <ele>903.7</ele>
      </trkpt>
      <trkpt lat="44.51053" lon="4.05394">
        <ele>899.3</ele>
      </trkpt>
      <trkpt lat="44.51042" lon="4.05426">
        <ele>891.7</ele>
      </trkpt>
      <trkpt lat="44.51026" lon="4.05438">
        <ele>887.6</ele>
      </trkpt>
      <trkpt lat="44.51009" lon="4.0543">
        <ele>884.2</ele>
      </trkpt>
      <trkpt lat="44.50982" lon="4.05426">
        <ele>874.5</ele>
      </trkpt>
      <trkpt lat="44.50938" lon="4.05394">
        <ele>865.9</ele>
      </trkpt>
      <trkpt lat="44.50908" lon="4.05386">
        <ele>860.5</ele>
      </trkpt>
      <trkpt lat="44.50878" lon="4.05415">
        <ele>854</ele>
      </trkpt>
      <trkpt lat="44.50833" lon="4.05529">
        <ele>845.9</ele>
      </trkpt>
      <trkpt lat="44.50832" lon="4.05537">
        <ele>845.6</ele>
        <time>2015-10-16T11:50:31Z</time>
        <extensions>
          <visugpx:TrkExtension xmlns:visugpx="https://www.visugpx.com/editgpx/">
            <visugpx:node>1</visugpx:node>
            </visugpx:TrkExtension>
        </extensions>
      </trkpt>
    </trkseg>
  </trk>
</gpx>